createdAt,value
2018-09-14T00:02:08.625Z,29.23
2018-09-14T00:04:37.803Z,31.85
2018-09-14T00:07:07.589Z,27.27
2018-09-14T00:09:36.776Z,30.30
2018-09-14T00:12:05.992Z,27.10
2018-09-14T00:14:35.544Z,26.62
2018-09-14T00:17:04.744Z,28.85
2018-09-14T00:19:33.928Z,27.02
2018-09-14T00:22:03.124Z,31.00
2018-09-14T00:24:32.312Z,27.85
2018-09-14T00:27:01.516Z,29.27
2018-09-14T00:29:30.687Z,28.32
2018-09-14T00:31:59.884Z,27.52
2018-09-14T00:34:29.073Z,26.70
2018-09-14T00:36:58.274Z,26.52
2018-09-14T00:39:27.461Z,29.02
2018-09-14T00:41:56.660Z,31.30
2018-09-14T00:44:25.844Z,31.90
2018-09-14T00:46:55.044Z,35.98
2018-09-14T00:49:24.212Z,26.95
2018-09-14T00:51:53.412Z,29.45
2018-09-14T00:54:22.625Z,24.72
2018-09-14T00:56:51.840Z,27.02
2018-09-14T00:59:21.033Z,28.65
2018-09-14T01:01:50.288Z,26.85
2018-09-14T01:04:19.470Z,27.17
2018-09-14T01:06:48.765Z,26.80
2018-09-14T01:09:23.235Z,28.35
2018-09-14T01:11:52.474Z,27.42
2018-09-14T01:14:21.652Z,25.82
2018-09-14T01:16:50.856Z,30.62
2018-09-14T01:19:20.032Z,31.97
2018-09-14T01:21:49.260Z,30.60
2018-09-14T01:24:18.440Z,31.68
2018-09-14T01:26:47.631Z,29.23
2018-09-14T01:29:16.828Z,29.92
2018-09-14T01:31:46.033Z,29.12
2018-09-14T01:34:15.390Z,30.02
2018-09-14T01:36:44.617Z,30.35
2018-09-14T01:39:14.105Z,29.92
2018-09-14T01:41:43.277Z,28.45
2018-09-14T01:44:12.468Z,29.87
2018-09-14T01:46:41.948Z,33.25
2018-09-14T01:49:11.141Z,32.00
2018-09-14T01:51:40.320Z,31.12
2018-09-14T01:54:09.516Z,31.68
2018-09-14T01:56:38.704Z,29.05
2018-09-14T01:59:07.893Z,30.75
2018-09-14T02:01:37.080Z,36.17
2018-09-14T02:04:06.283Z,32.95
2018-09-14T02:06:35.710Z,37.03
2018-09-14T02:09:07.156Z,33.15
2018-09-14T02:11:36.361Z,31.42
2018-09-14T02:14:05.552Z,33.90
2018-09-14T02:16:34.733Z,34.58
2018-09-14T02:19:04.173Z,32.15
2018-09-14T02:21:33.355Z,31.17
2018-09-14T02:24:02.604Z,35.35
2018-09-14T02:26:32.193Z,31.65
2018-09-14T02:29:01.385Z,30.75
2018-09-14T02:31:30.565Z,38.85
2018-09-14T02:33:59.760Z,33.83
2018-09-14T02:36:28.947Z,39.20
2018-09-14T02:38:58.148Z,37.50
2018-09-14T02:41:27.336Z,42.48
2018-09-14T02:43:56.545Z,30.43
2018-09-14T02:46:25.721Z,36.70
2018-09-14T02:48:54.916Z,38.25
2018-09-14T02:51:24.097Z,37.33
2018-09-14T02:53:53.320Z,44.15
2018-09-14T02:56:22.497Z,37.40
2018-09-14T02:58:51.719Z,39.80
2018-09-14T03:01:20.891Z,40.15
2018-09-14T03:03:50.233Z,38.40
2018-09-14T03:06:19.457Z,36.55
2018-09-14T03:08:51.517Z,40.92
2018-09-14T03:11:20.717Z,32.83
2018-09-14T03:13:49.908Z,41.40
2018-09-14T03:16:19.078Z,36.10
2018-09-14T03:18:48.274Z,39.45
2018-09-14T03:21:17.456Z,36.10
2018-09-14T03:23:46.652Z,38.55
2018-09-14T03:26:16.168Z,34.23
2018-09-14T03:28:45.384Z,40.67
2018-09-14T03:31:14.552Z,35.25
2018-09-14T03:33:43.748Z,38.67
2018-09-14T03:36:12.918Z,43.13
2018-09-14T03:38:42.168Z,41.88
2018-09-14T03:41:11.312Z,38.83
2018-09-14T03:43:40.516Z,40.65
2018-09-14T03:46:09.684Z,40.73
2018-09-14T03:48:39.067Z,41.73
2018-09-14T03:51:08.470Z,38.58
2018-09-14T03:53:37.702Z,39.88
2018-09-14T03:56:06.916Z,43.68
2018-09-14T03:58:36.219Z,39.67
2018-09-14T04:01:05.496Z,41.05
2018-09-14T04:03:35.156Z,36.60
2018-09-14T04:06:04.613Z,42.78
2018-09-14T04:08:33.816Z,40.17
2018-09-14T04:11:03.014Z,46.83
2018-09-14T04:13:32.242Z,43.98
2018-09-14T04:16:01.472Z,43.10
2018-09-14T04:18:30.706Z,44.15
2018-09-14T04:20:59.881Z,40.33
2018-09-14T04:23:29.148Z,42.17
2018-09-14T04:25:58.348Z,45.88
2018-09-14T04:28:27.549Z,44.60
2018-09-14T04:30:56.805Z,44.90
2018-09-14T04:33:26.006Z,44.75
2018-09-14T04:35:55.276Z,51.15
2018-09-14T04:38:24.493Z,54.35
2018-09-14T04:40:53.692Z,46.23
2018-09-14T04:43:22.888Z,48.98
2018-09-14T04:45:52.296Z,47.58
2018-09-14T04:48:21.508Z,44.77
2018-09-14T04:50:50.720Z,47.90
2018-09-14T04:53:19.892Z,39.67
2018-09-14T04:55:49.128Z,42.98
2018-09-14T04:58:18.312Z,38.78
2018-09-14T05:00:47.580Z,39.90
2018-09-14T05:03:16.821Z,31.12
2018-09-14T05:05:46.032Z,31.17
2018-09-14T05:08:15.608Z,27.65
2018-09-14T05:10:44.824Z,27.62
2018-09-14T05:13:14.374Z,23.70
2018-09-14T05:15:43.622Z,23.10
2018-09-14T05:18:12.805Z,21.12
2018-09-14T05:20:42.032Z,22.82
2018-09-14T05:23:11.212Z,19.37
2018-09-14T05:25:40.420Z,17.82
2018-09-14T05:28:09.605Z,18.95
2018-09-14T05:30:41.564Z,19.00
2018-09-14T05:33:10.804Z,16.40
2018-09-14T05:35:40.388Z,19.77
2018-09-14T05:38:09.615Z,14.45
2018-09-14T05:40:38.901Z,17.62
2018-09-14T05:43:08.096Z,16.62
2018-09-14T05:45:37.372Z,13.65
2018-09-14T05:48:06.885Z,18.62
2018-09-14T05:50:36.200Z,18.42
2018-09-14T05:53:05.426Z,19.07
2018-09-14T05:55:34.625Z,18.80
2018-09-14T05:58:03.841Z,21.80
2018-09-14T06:00:33.132Z,16.73
2018-09-14T06:03:02.312Z,19.10
2018-09-14T06:05:31.536Z,21.70
2018-09-14T06:08:00.720Z,20.80
2018-09-14T06:10:29.971Z,16.97
2018-09-14T06:12:59.193Z,18.50
2018-09-14T06:15:28.400Z,15.13
2018-09-14T06:17:57.590Z,14.73
2018-09-14T06:20:26.802Z,16.25
2018-09-14T06:22:56.010Z,17.37
2018-09-14T06:25:25.240Z,14.65
2018-09-14T06:27:54.436Z,18.20
2018-09-14T06:30:23.665Z,15.93
2018-09-14T06:32:52.815Z,12.28
2018-09-14T06:35:22.057Z,14.23
2018-09-14T06:37:51.289Z,13.75
2018-09-14T06:40:20.492Z,13.00
2018-09-14T06:42:49.675Z,15.55
2018-09-14T06:45:18.896Z,14.38
2018-09-14T06:47:48.096Z,13.30
2018-09-14T06:50:17.347Z,17.62
2018-09-14T06:52:46.542Z,16.52
2018-09-14T06:55:15.733Z,15.32
2018-09-14T06:57:44.916Z,15.18
2018-09-14T07:00:14.134Z,13.58
2018-09-14T07:02:43.348Z,16.25
2018-09-14T07:05:12.607Z,16.55
2018-09-14T07:07:41.804Z,13.70
2018-09-14T07:10:11.103Z,12.95
2018-09-14T07:12:40.612Z,12.85
2018-09-14T07:15:09.880Z,14.20
2018-09-14T07:17:39.052Z,13.68
2018-09-14T07:20:08.258Z,15.10
2018-09-14T07:22:37.465Z,12.43
2018-09-14T07:25:06.666Z,17.45
2018-09-14T07:27:35.897Z,15.70
2018-09-14T07:30:05.572Z,11.33
2018-09-14T07:32:34.828Z,19.00
2018-09-14T07:35:04.024Z,13.85
2018-09-14T07:37:33.200Z,18.12
2018-09-14T07:40:02.433Z,11.40
2018-09-14T07:42:31.692Z,9.38
2018-09-14T07:45:04.728Z,12.80
2018-09-14T07:47:33.916Z,9.03
2018-09-14T07:50:03.131Z,10.53
2018-09-14T07:52:32.360Z,8.68
2018-09-14T07:55:01.554Z,9.58
2018-09-14T07:57:30.756Z,7.80
2018-09-14T07:59:59.948Z,8.38
2018-09-14T08:02:29.113Z,9.50
2018-09-14T08:04:58.320Z,13.60
2018-09-14T08:07:27.500Z,11.38
2018-09-14T08:09:56.697Z,9.38
2018-09-14T08:12:25.888Z,10.28
2018-09-14T08:14:55.092Z,9.15
2018-09-14T08:17:24.332Z,8.33
2018-09-14T08:19:53.576Z,12.73
2018-09-14T08:22:22.775Z,10.13
2018-09-14T08:24:51.976Z,11.35
2018-09-14T08:27:21.195Z,9.55
2018-09-14T08:29:50.388Z,11.12
2018-09-14T08:32:19.619Z,10.20
2018-09-14T08:34:48.833Z,9.90
2018-09-14T08:37:18.016Z,15.03
2018-09-14T08:39:47.218Z,10.72
2018-09-14T08:42:16.395Z,8.50
2018-09-14T08:44:45.597Z,10.05
2018-09-14T08:47:14.769Z,8.38
2018-09-14T08:49:43.964Z,15.88
2018-09-14T08:52:13.159Z,9.98
2018-09-14T08:54:42.347Z,8.20
2018-09-14T08:57:11.518Z,8.20
2018-09-14T08:59:40.723Z,9.65
2018-09-14T09:02:09.957Z,9.45
2018-09-14T09:04:39.187Z,10.23
2018-09-14T09:07:08.448Z,18.12
2018-09-14T09:09:37.804Z,10.70
2018-09-14T09:12:07.644Z,7.67
2018-09-14T09:14:36.824Z,8.50
2018-09-14T09:17:06.075Z,7.78
2018-09-14T09:19:35.346Z,6.87
2018-09-14T09:22:04.541Z,8.95
2018-09-14T09:24:33.728Z,7.60
2018-09-14T09:27:02.952Z,7.72
2018-09-14T09:29:32.212Z,8.00
2018-09-14T09:32:01.402Z,13.75
2018-09-14T09:34:30.696Z,6.70
2018-09-14T09:36:59.972Z,7.53
2018-09-14T09:39:29.160Z,8.08
2018-09-14T09:41:58.389Z,9.03
2018-09-14T09:44:27.592Z,7.33
2018-09-14T09:46:56.856Z,7.45
2018-09-14T09:49:26.033Z,7.55
2018-09-14T09:51:55.220Z,8.90
2018-09-14T09:54:24.404Z,10.82
2018-09-14T09:56:53.889Z,7.40
2018-09-14T09:59:23.081Z,11.28
2018-09-14T10:01:57.505Z,8.83
2018-09-14T10:04:32.749Z,8.95
2018-09-14T10:07:01.937Z,9.73
2018-09-14T10:09:31.169Z,10.80
2018-09-14T10:12:00.411Z,6.75
2018-09-14T10:14:29.605Z,8.78
2018-09-14T10:16:58.772Z,9.55
2018-09-14T10:19:27.990Z,6.90
2018-09-14T10:21:57.185Z,7.65
2018-09-14T10:24:26.425Z,11.48
2018-09-14T10:26:55.856Z,9.93
2018-09-14T10:29:25.112Z,13.10
2018-09-14T10:31:54.309Z,8.33
2018-09-14T10:34:23.529Z,11.60
2018-09-14T10:36:52.753Z,9.38
2018-09-14T10:39:21.896Z,6.45
2018-09-14T10:41:51.073Z,10.55
2018-09-14T10:44:20.278Z,7.97
2018-09-14T10:46:49.469Z,6.75
2018-09-14T10:49:18.700Z,7.97
2018-09-14T10:51:47.904Z,9.03
2018-09-14T10:54:17.093Z,9.55
2018-09-14T10:56:46.281Z,8.80
2018-09-14T10:59:15.532Z,7.35
2018-09-14T11:01:44.719Z,13.05
2018-09-14T11:04:13.952Z,7.35
2018-09-14T11:06:43.225Z,14.78
2018-09-14T11:09:13.676Z,11.22
2018-09-14T11:11:43.077Z,8.70
2018-09-14T11:14:12.309Z,11.80
2018-09-14T11:16:41.481Z,7.58
2018-09-14T11:19:10.665Z,6.92
2018-09-14T11:21:39.845Z,7.35
2018-09-14T11:24:09.076Z,6.75
2018-09-14T11:26:38.252Z,7.90
2018-09-14T11:29:07.482Z,7.28
2018-09-14T11:31:36.706Z,6.10
2018-09-14T11:34:05.922Z,6.70
2018-09-14T11:36:35.136Z,8.10
2018-09-14T11:39:06.038Z,6.97
2018-09-14T11:41:35.228Z,6.67
2018-09-14T11:44:04.415Z,5.28
2018-09-14T11:46:33.594Z,7.45
2018-09-14T11:49:02.867Z,6.75
2018-09-14T11:51:32.198Z,8.58
2018-09-14T11:54:01.425Z,5.70
2018-09-14T11:56:30.784Z,6.33
2018-09-14T11:58:59.996Z,5.70
2018-09-14T12:01:29.268Z,5.97
2018-09-14T12:03:58.487Z,5.12
2018-09-14T12:06:27.720Z,4.50
2018-09-14T12:08:56.913Z,4.75
2018-09-14T12:11:26.112Z,4.40
2018-09-14T12:13:55.567Z,4.35
2018-09-14T12:16:24.688Z,3.80
2018-09-14T12:18:53.920Z,4.95
2018-09-14T12:21:23.176Z,4.62
2018-09-14T12:23:52.363Z,5.03
2018-09-14T12:26:21.549Z,5.35
2018-09-14T12:28:50.749Z,5.12
2018-09-14T12:31:19.932Z,5.05
2018-09-14T12:33:49.249Z,4.25
2018-09-14T12:36:21.341Z,5.60
2018-09-14T12:38:50.508Z,4.00
2018-09-14T12:41:19.691Z,5.58
2018-09-14T12:43:48.867Z,5.10
2018-09-14T12:46:18.094Z,5.22
2018-09-14T12:48:47.373Z,4.17
2018-09-14T12:51:16.545Z,3.85
2018-09-14T12:53:45.825Z,9.45
2018-09-14T12:56:15.041Z,5.30
2018-09-14T12:58:44.212Z,5.10
2018-09-14T13:01:13.428Z,5.55
2018-09-14T13:03:42.627Z,5.08
2018-09-14T13:06:11.841Z,5.20
2018-09-14T13:08:41.044Z,5.30
2018-09-14T13:11:10.251Z,5.12
2018-09-14T13:13:39.441Z,4.37
2018-09-14T13:16:08.640Z,5.53
2018-09-14T13:18:37.973Z,4.70
2018-09-14T13:21:07.176Z,4.67
2018-09-14T13:23:36.376Z,5.62
2018-09-14T13:26:06.293Z,4.30
2018-09-14T13:28:35.468Z,4.80
2018-09-14T13:31:04.656Z,5.75
2018-09-14T13:33:33.832Z,4.50
2018-09-14T13:36:03.066Z,4.78
2018-09-14T13:38:32.621Z,4.87
2018-09-14T13:41:01.833Z,4.80
2018-09-14T13:43:31.048Z,9.58
2018-09-14T13:46:00.278Z,4.45
2018-09-14T13:48:29.468Z,4.33
2018-09-14T13:51:05.150Z,4.20
2018-09-14T13:53:34.333Z,7.60
2018-09-14T13:56:03.576Z,10.60
2018-09-14T13:58:32.788Z,4.80
2018-09-14T14:01:02.024Z,15.68
2018-09-14T14:03:31.228Z,8.18
2018-09-14T14:06:00.488Z,7.50
2018-09-14T14:08:29.690Z,6.20
2018-09-14T14:10:58.910Z,4.50
2018-09-14T14:13:28.215Z,4.55
2018-09-14T14:15:57.445Z,4.17
2018-09-14T14:18:26.676Z,3.67
2018-09-14T14:20:55.896Z,6.03
2018-09-14T14:23:25.073Z,4.80
2018-09-14T14:25:54.312Z,5.95
2018-09-14T14:28:23.560Z,6.00
2018-09-14T14:30:52.765Z,5.80
2018-09-14T14:33:21.948Z,4.92
2018-09-14T14:35:51.192Z,4.20
2018-09-14T14:38:20.375Z,5.37
2018-09-14T14:40:49.580Z,4.75
2018-09-14T14:43:18.797Z,5.75
2018-09-14T14:45:48.095Z,6.10
2018-09-14T14:48:17.317Z,4.25
2018-09-14T14:50:46.524Z,4.72
2018-09-14T14:53:16.508Z,3.87
2018-09-14T14:55:45.787Z,4.45
2018-09-14T14:58:14.956Z,4.45
2018-09-14T15:00:44.188Z,4.37
2018-09-14T15:03:13.364Z,5.35
2018-09-14T15:05:42.584Z,5.12
2018-09-14T15:08:11.810Z,6.20
2018-09-14T15:10:41.126Z,3.58
2018-09-14T15:13:10.228Z,4.80
2018-09-14T15:15:39.424Z,4.65
2018-09-14T15:18:08.585Z,5.67
2018-09-14T15:20:37.759Z,5.20
2018-09-14T15:23:06.961Z,4.17
2018-09-14T15:25:36.149Z,4.10
2018-09-14T15:28:05.409Z,6.05
2018-09-14T15:30:34.620Z,3.85
2018-09-14T15:33:03.805Z,4.85
2018-09-14T15:35:33.004Z,4.03
2018-09-14T15:38:02.184Z,3.80
2018-09-14T15:40:31.456Z,3.80
2018-09-14T15:43:00.626Z,4.42
2018-09-14T15:45:29.818Z,4.30
2018-09-14T15:47:58.988Z,3.85
2018-09-14T15:50:28.514Z,5.05
2018-09-14T15:52:57.720Z,4.30
2018-09-14T15:55:26.922Z,3.77
2018-09-14T15:57:56.116Z,3.98
2018-09-14T16:00:25.304Z,4.10
2018-09-14T16:02:54.793Z,5.65
2018-09-14T16:05:23.980Z,4.15
2018-09-14T16:07:53.181Z,4.80
2018-09-14T16:10:22.356Z,4.25
2018-09-14T16:12:51.584Z,3.98
2018-09-14T16:15:20.779Z,3.70
2018-09-14T16:17:49.972Z,6.17
2018-09-14T16:20:19.156Z,3.35
2018-09-14T16:22:48.349Z,5.60
2018-09-14T16:25:17.556Z,9.50
2018-09-14T16:27:46.747Z,4.08
2018-09-14T16:30:15.928Z,6.42
2018-09-14T16:32:45.133Z,5.08
2018-09-14T16:35:14.300Z,7.20
2018-09-14T16:37:43.572Z,7.12
2018-09-14T16:40:12.750Z,6.28
2018-09-14T16:42:41.992Z,6.35
2018-09-14T16:45:11.152Z,5.95
2018-09-14T16:47:40.956Z,5.55
2018-09-14T16:50:10.368Z,7.00
2018-09-14T16:52:39.620Z,8.63
2018-09-14T16:55:08.791Z,4.08
2018-09-14T16:57:38.002Z,4.78
2018-09-14T17:00:08.065Z,5.22
2018-09-14T17:02:37.479Z,8.33
2018-09-14T17:05:06.973Z,4.92
2018-09-14T17:07:36.306Z,9.60
2018-09-14T17:10:05.547Z,8.88
2018-09-14T17:12:34.737Z,6.03
2018-09-14T17:15:03.960Z,6.85
2018-09-14T17:17:33.159Z,9.03
2018-09-14T17:20:02.346Z,5.92
2018-09-14T17:22:31.545Z,4.70
2018-09-14T17:25:00.709Z,5.37
2018-09-14T17:27:30.045Z,4.08
2018-09-14T17:29:59.220Z,5.25
2018-09-14T17:32:28.412Z,7.12
2018-09-14T17:34:57.596Z,3.92
2018-09-14T17:37:26.804Z,6.78
2018-09-14T17:39:55.975Z,5.28
2018-09-14T17:42:25.168Z,4.05
2018-09-14T17:44:54.333Z,6.30
2018-09-14T17:47:23.524Z,4.75
2018-09-14T17:49:59.056Z,4.05
2018-09-14T17:52:28.244Z,8.50
2018-09-14T17:54:57.420Z,4.62
2018-09-14T17:57:26.637Z,5.83
2018-09-14T17:59:55.842Z,4.25
2018-09-14T18:02:25.029Z,6.30
2018-09-14T18:04:54.205Z,5.10
2018-09-14T18:07:23.445Z,5.25
2018-09-14T18:09:52.635Z,5.15
2018-09-14T18:12:21.916Z,6.85
2018-09-14T18:14:51.113Z,6.67
2018-09-14T18:17:20.316Z,5.65
2018-09-14T18:19:49.497Z,10.88
2018-09-14T18:22:18.762Z,5.37
2018-09-14T18:24:47.897Z,4.65
2018-09-14T18:27:17.090Z,5.03
2018-09-14T18:29:46.317Z,5.30
2018-09-14T18:32:15.512Z,6.20
2018-09-14T18:34:44.685Z,5.35
2018-09-14T18:37:14.168Z,6.50
2018-09-14T18:39:43.366Z,5.10
2018-09-14T18:42:12.565Z,5.95
2018-09-14T18:44:41.749Z,5.70
2018-09-14T18:47:10.932Z,5.95
2018-09-14T18:49:40.112Z,6.20
2018-09-14T18:52:09.297Z,6.12
2018-09-14T18:54:38.473Z,6.42
2018-09-14T18:57:07.700Z,6.22
2018-09-14T18:59:36.960Z,7.53
2018-09-14T19:02:06.149Z,7.83
2018-09-14T19:04:35.334Z,7.50
2018-09-14T19:07:04.522Z,6.37
2018-09-14T19:09:33.715Z,7.65
2018-09-14T19:12:02.984Z,7.72
2018-09-14T19:14:33.272Z,10.93
2018-09-14T19:17:02.459Z,8.03
2018-09-14T19:19:31.646Z,7.53
2018-09-14T19:22:00.808Z,7.10
2018-09-14T19:24:30.051Z,7.87
2018-09-14T19:26:59.308Z,8.23
2018-09-14T19:29:29.292Z,8.23
2018-09-14T19:31:58.489Z,10.30
2018-09-14T19:34:27.704Z,9.45
2018-09-14T19:36:56.888Z,7.80
2018-09-14T19:39:26.076Z,7.37
2018-09-14T19:41:55.253Z,6.90
2018-09-14T19:44:24.455Z,6.80
2018-09-14T19:46:53.637Z,7.50
2018-09-14T19:49:22.828Z,7.17
2018-09-14T19:51:52.132Z,11.97
2018-09-14T19:54:21.328Z,8.25
2018-09-14T19:56:50.512Z,7.17
2018-09-14T19:59:19.724Z,7.40
2018-09-14T20:01:48.896Z,7.00
2018-09-14T20:04:18.578Z,7.53
2018-09-14T20:06:47.801Z,6.92
2018-09-14T20:09:16.996Z,8.00
2018-09-14T20:11:46.317Z,5.87
2018-09-14T20:14:16.288Z,7.05
2018-09-14T20:16:45.460Z,6.08
2018-09-14T20:19:14.643Z,5.50
2018-09-14T20:21:43.844Z,6.37
2018-09-14T20:24:13.037Z,7.10
2018-09-14T20:26:42.215Z,6.87
2018-09-14T20:29:11.498Z,6.03
2018-09-14T20:31:40.700Z,6.47
2018-09-14T20:34:09.885Z,6.70
2018-09-14T20:36:39.064Z,7.97
2018-09-14T20:39:11.173Z,6.80
2018-09-14T20:41:40.624Z,9.83
2018-09-14T20:44:09.812Z,6.95
2018-09-14T20:46:39.033Z,6.58
2018-09-14T20:49:08.220Z,8.83
2018-09-14T20:51:37.454Z,6.78
2018-09-14T20:54:06.649Z,8.70
2018-09-14T20:56:35.815Z,7.62
2018-09-14T20:59:05.008Z,5.83
2018-09-14T21:01:34.200Z,7.35
2018-09-14T21:04:03.406Z,7.00
2018-09-14T21:06:32.581Z,7.05
2018-09-14T21:09:01.810Z,6.30
2018-09-14T21:11:31.025Z,5.87
2018-09-14T21:14:00.212Z,6.65
2018-09-14T21:16:29.396Z,7.05
2018-09-14T21:18:58.620Z,6.28
2018-09-14T21:21:27.783Z,7.45
2018-09-14T21:23:56.980Z,6.87
2018-09-14T21:26:26.176Z,6.10
2018-09-14T21:28:55.361Z,6.25
2018-09-14T21:31:24.543Z,5.92
2018-09-14T21:34:00.112Z,7.08
2018-09-14T21:36:29.336Z,7.55
2018-09-14T21:38:58.561Z,7.47
2018-09-14T21:41:27.737Z,6.33
2018-09-14T21:43:56.924Z,7.12
2018-09-14T21:46:26.105Z,7.83
2018-09-14T21:48:55.300Z,6.47
2018-09-14T21:51:24.472Z,6.00
2018-09-14T21:53:53.693Z,7.33
2018-09-14T21:56:22.887Z,6.53
2018-09-14T21:58:52.103Z,7.30
2018-09-14T22:01:27.040Z,6.35
2018-09-14T22:03:57.586Z,7.08
2018-09-14T22:06:26.878Z,6.55
2018-09-14T22:08:56.512Z,6.33
2018-09-14T22:11:25.694Z,6.37
2018-09-14T22:13:54.988Z,7.08
2018-09-14T22:16:24.181Z,6.60
2018-09-14T22:18:53.373Z,6.30
2018-09-14T22:21:22.547Z,6.45
2018-09-14T22:23:51.740Z,5.92
2018-09-14T22:26:20.914Z,6.60
2018-09-14T22:28:50.097Z,6.47
2018-09-14T22:31:19.276Z,6.75
2018-09-14T22:33:48.491Z,7.17
2018-09-14T22:36:17.688Z,6.95
2018-09-14T22:38:46.979Z,7.08
2018-09-14T22:41:16.352Z,7.40
2018-09-14T22:43:45.863Z,6.70
2018-09-14T22:46:15.176Z,6.97
2018-09-14T22:48:44.355Z,7.30
2018-09-14T22:51:13.692Z,7.45
2018-09-14T22:53:42.888Z,7.67
2018-09-14T22:56:12.092Z,6.45
2018-09-14T22:58:41.268Z,5.87
2018-09-14T23:01:17.511Z,6.08
2018-09-14T23:03:47.621Z,5.90
2018-09-14T23:06:16.819Z,6.15
2018-09-14T23:08:46.132Z,5.83
2018-09-14T23:11:15.340Z,6.10
2018-09-14T23:13:44.509Z,5.87
2018-09-14T23:16:13.700Z,6.30
2018-09-14T23:18:42.882Z,5.80
2018-09-14T23:21:12.081Z,6.10
2018-09-14T23:23:41.240Z,5.90
2018-09-14T23:26:12.944Z,6.75
2018-09-14T23:28:42.276Z,6.25
2018-09-14T23:31:11.544Z,6.53
2018-09-14T23:33:40.743Z,6.47
2018-09-14T23:36:09.933Z,6.80
2018-09-14T23:38:39.107Z,6.37
2018-09-14T23:41:08.292Z,6.53
2018-09-14T23:43:37.527Z,6.00
2018-09-14T23:46:06.724Z,6.55
2018-09-14T23:48:35.892Z,5.65
2018-09-14T23:51:05.081Z,6.10
2018-09-14T23:53:34.276Z,6.08
2018-09-14T23:56:03.701Z,6.25
2018-09-14T23:58:32.932Z,6.05
